sensor_id;sensor_type;location;lat;lon;timestamp;P1;durP1;ratioP1;P2;durP2;ratioP2
3733;SDS011;1882;52.256;8.874;2024-02-26T00:00:08;2.90;;;2.70;;
3733;SDS011;1882;52.256;8.874;2024-02-26T00:02:36;2.70;;;2.50;;
3733;SDS011;1882;52.256;8.874;2024-02-26T00:05:05;3.47;;;3.00;;
3733;SDS011;1882;52.256;8.874;2024-02-26T00:07:32;3.30;;;2.63;;
3733;SDS011;1882;52.256;8.874;2024-02-26T00:09:59;2.70;;;2.50;;
3733;SDS011;1882;52.256;8.874;2024-02-26T00:12:26;4.00;;;2.80;;
3733;SDS011;1882;52.256;8.874;2024-02-26T00:14:53;3.03;;;2.30;;
3733;SDS011;1882;52.256;8.874;2024-02-26T00:17:20;4.10;;;2.23;;
3733;SDS011;1882;52.256;8.874;2024-02-26T00:19:47;2.40;;;2.20;;
3733;SDS011;1882;52.256;8.874;2024-02-26T00:22:14;2.30;;;2.13;;
3733;SDS011;1882;52.256;8.874;2024-02-26T00:24:41;2.30;;;2.10;;
3733;SDS011;1882;52.256;8.874;2024-02-26T00:27:08;2.60;;;2.40;;
3733;SDS011;1882;52.256;8.874;2024-02-26T00:29:35;2.77;;;2.43;;
3733;SDS011;1882;52.256;8.874;2024-02-26T00:32:02;2.50;;;2.30;;
3733;SDS011;1882;52.256;8.874;2024-02-26T00:34:30;2.63;;;2.40;;
3733;SDS011;1882;52.256;8.874;2024-02-26T00:36:57;2.70;;;2.40;;
3733;SDS011;1882;52.256;8.874;2024-02-26T00:39:24;3.97;;;2.60;;
3733;SDS011;1882;52.256;8.874;2024-02-26T00:41:51;3.23;;;2.60;;
3733;SDS011;1882;52.256;8.874;2024-02-26T00:44:18;2.80;;;2.30;;
3733;SDS011;1882;52.256;8.874;2024-02-26T00:46:46;2.33;;;2.13;;
3733;SDS011;1882;52.256;8.874;2024-02-26T00:49:12;2.33;;;2.13;;
3733;SDS011;1882;52.256;8.874;2024-02-26T00:51:39;2.90;;;2.60;;
3733;SDS011;1882;52.256;8.874;2024-02-26T00:54:06;2.90;;;2.60;;
3733;SDS011;1882;52.256;8.874;2024-02-26T00:56:33;2.80;;;2.60;;
3733;SDS011;1882;52.256;8.874;2024-02-26T00:59:00;3.50;;;3.20;;
3733;SDS011;1882;52.256;8.874;2024-02-26T01:01:27;3.87;;;3.47;;
3733;SDS011;1882;52.256;8.874;2024-02-26T01:03:54;4.17;;;3.30;;
3733;SDS011;1882;52.256;8.874;2024-02-26T01:06:21;3.37;;;3.03;;
3733;SDS011;1882;52.256;8.874;2024-02-26T01:08:49;7.00;;;4.03;;
3733;SDS011;1882;52.256;8.874;2024-02-26T01:11:16;4.17;;;3.77;;
3733;SDS011;1882;52.256;8.874;2024-02-26T01:13:43;4.60;;;3.20;;
3733;SDS011;1882;52.256;8.874;2024-02-26T01:16:10;3.67;;;3.37;;
3733;SDS011;1882;52.256;8.874;2024-02-26T01:18:37;3.70;;;3.40;;
3733;SDS011;1882;52.256;8.874;2024-02-26T01:21:04;6.07;;;3.90;;
3733;SDS011;1882;52.256;8.874;2024-02-26T01:23:35;5.23;;;3.97;;
3733;SDS011;1882;52.256;8.874;2024-02-26T01:26:01;4.90;;;3.80;;
3733;SDS011;1882;52.256;8.874;2024-02-26T01:28:29;4.50;;;3.87;;
3733;SDS011;1882;52.256;8.874;2024-02-26T01:30:56;4.20;;;3.23;;
3733;SDS011;1882;52.256;8.874;2024-02-26T01:33:25;2.97;;;2.70;;
3733;SDS011;1882;52.256;8.874;2024-02-26T01:35:52;2.97;;;2.77;;
3733;SDS011;1882;52.256;8.874;2024-02-26T01:38:19;3.93;;;2.80;;
3733;SDS011;1882;52.256;8.874;2024-02-26T01:40:46;3.20;;;2.90;;
3733;SDS011;1882;52.256;8.874;2024-02-26T01:43:13;2.93;;;2.63;;
3733;SDS011;1882;52.256;8.874;2024-02-26T01:45:40;2.50;;;2.30;;
3733;SDS011;1882;52.256;8.874;2024-02-26T01:48:07;2.93;;;2.63;;
3733;SDS011;1882;52.256;8.874;2024-02-26T01:50:34;2.97;;;2.67;;
3733;SDS011;1882;52.256;8.874;2024-02-26T01:53:02;2.57;;;2.37;;
3733;SDS011;1882;52.256;8.874;2024-02-26T01:55:30;2.70;;;2.50;;
3733;SDS011;1882;52.256;8.874;2024-02-26T01:57:57;2.40;;;2.20;;
3733;SDS011;1882;52.256;8.874;2024-02-26T02:00:24;2.50;;;2.30;;
3733;SDS011;1882;52.256;8.874;2024-02-26T02:02:52;2.57;;;2.17;;
3733;SDS011;1882;52.256;8.874;2024-02-26T02:05:21;2.73;;;2.53;;
3733;SDS011;1882;52.256;8.874;2024-02-26T02:07:48;4.13;;;2.60;;
3733;SDS011;1882;52.256;8.874;2024-02-26T02:10:16;3.17;;;2.80;;
3733;SDS011;1882;52.256;8.874;2024-02-26T02:12:44;2.73;;;2.50;;
3733;SDS011;1882;52.256;8.874;2024-02-26T02:15:11;2.87;;;2.60;;
3733;SDS011;1882;52.256;8.874;2024-02-26T02:17:38;3.77;;;2.77;;
3733;SDS011;1882;52.256;8.874;2024-02-26T02:20:10;3.50;;;3.20;;
3733;SDS011;1882;52.256;8.874;2024-02-26T02:22:46;3.53;;;3.13;;
3733;SDS011;1882;52.256;8.874;2024-02-26T02:25:13;6.80;;;3.70;;
3733;SDS011;1882;52.256;8.874;2024-02-26T02:27:41;4.33;;;3.93;;
3733;SDS011;1882;52.256;8.874;2024-02-26T02:30:09;4.57;;;4.17;;
3733;SDS011;1882;52.256;8.874;2024-02-26T02:32:37;4.57;;;4.17;;
3733;SDS011;1882;52.256;8.874;2024-02-26T02:35:08;4.83;;;4.20;;
3733;SDS011;1882;52.256;8.874;2024-02-26T02:37:35;5.00;;;4.50;;
3733;SDS011;1882;52.256;8.874;2024-02-26T02:40:03;6.00;;;4.40;;
3733;SDS011;1882;52.256;8.874;2024-02-26T02:42:31;4.30;;;3.90;;
3733;SDS011;1882;52.256;8.874;2024-02-26T02:44:58;4.77;;;4.30;;
3733;SDS011;1882;52.256;8.874;2024-02-26T02:47:25;6.67;;;4.43;;
3733;SDS011;1882;52.256;8.874;2024-02-26T02:49:52;4.50;;;4.03;;
3733;SDS011;1882;52.256;8.874;2024-02-26T02:52:19;4.30;;;3.90;;
3733;SDS011;1882;52.256;8.874;2024-02-26T02:54:46;5.00;;;4.53;;
3733;SDS011;1882;52.256;8.874;2024-02-26T02:57:13;4.50;;;4.10;;
3733;SDS011;1882;52.256;8.874;2024-02-26T02:59:40;5.63;;;4.60;;
3733;SDS011;1882;52.256;8.874;2024-02-26T03:02:07;5.40;;;4.50;;
3733;SDS011;1882;52.256;8.874;2024-02-26T03:04:34;9.60;;;4.60;;
3733;SDS011;1882;52.256;8.874;2024-02-26T03:07:01;6.33;;;4.70;;
3733;SDS011;1882;52.256;8.874;2024-02-26T03:09:28;5.10;;;4.57;;
3733;SDS011;1882;52.256;8.874;2024-02-26T03:11:56;4.67;;;4.27;;
3733;SDS011;1882;52.256;8.874;2024-02-26T03:14:23;5.83;;;4.87;;
3733;SDS011;1882;52.256;8.874;2024-02-26T03:16:50;5.97;;;5.07;;
3733;SDS011;1882;52.256;8.874;2024-02-26T03:19:20;5.03;;;4.53;;
3733;SDS011;1882;52.256;8.874;2024-02-26T03:21:47;5.13;;;4.63;;
3733;SDS011;1882;52.256;8.874;2024-02-26T03:24:14;5.30;;;4.70;;
3733;SDS011;1882;52.256;8.874;2024-02-26T03:26:41;5.60;;;4.90;;
3733;SDS011;1882;52.256;8.874;2024-02-26T03:29:08;5.50;;;4.80;;
3733;SDS011;1882;52.256;8.874;2024-02-26T03:31:35;5.20;;;4.70;;
3733;SDS011;1882;52.256;8.874;2024-02-26T03:34:02;5.00;;;4.57;;
3733;SDS011;1882;52.256;8.874;2024-02-26T03:36:29;5.10;;;4.60;;
3733;SDS011;1882;52.256;8.874;2024-02-26T03:38:56;5.33;;;4.50;;
3733;SDS011;1882;52.256;8.874;2024-02-26T03:41:22;5.57;;;4.40;;
3733;SDS011;1882;52.256;8.874;2024-02-26T03:43:49;5.30;;;4.77;;
3733;SDS011;1882;52.256;8.874;2024-02-26T03:46:16;5.50;;;4.30;;
3733;SDS011;1882;52.256;8.874;2024-02-26T03:48:43;5.60;;;4.20;;
3733;SDS011;1882;52.256;8.874;2024-02-26T03:51:10;5.80;;;4.90;;
3733;SDS011;1882;52.256;8.874;2024-02-26T03:53:37;5.60;;;5.00;;
3733;SDS011;1882;52.256;8.874;2024-02-26T03:56:04;7.43;;;5.10;;
3733;SDS011;1882;52.256;8.874;2024-02-26T03:58:32;5.43;;;4.90;;
3733;SDS011;1882;52.256;8.874;2024-02-26T04:00:59;7.03;;;5.60;;
3733;SDS011;1882;52.256;8.874;2024-02-26T04:03:27;5.43;;;4.83;;
3733;SDS011;1882;52.256;8.874;2024-02-26T04:05:54;6.00;;;5.40;;
3733;SDS011;1882;52.256;8.874;2024-02-26T04:08:21;5.30;;;4.80;;
3733;SDS011;1882;52.256;8.874;2024-02-26T04:10:48;6.63;;;5.70;;
3733;SDS011;1882;52.256;8.874;2024-02-26T04:13:16;6.27;;;5.67;;
3733;SDS011;1882;52.256;8.874;2024-02-26T04:15:44;6.77;;;5.43;;
3733;SDS011;1882;52.256;8.874;2024-02-26T04:18:11;6.20;;;5.60;;
3733;SDS011;1882;52.256;8.874;2024-02-26T04:20:38;6.50;;;5.67;;
3733;SDS011;1882;52.256;8.874;2024-02-26T04:23:05;5.57;;;5.03;;
3733;SDS011;1882;52.256;8.874;2024-02-26T04:25:32;6.17;;;5.30;;
3733;SDS011;1882;52.256;8.874;2024-02-26T04:27:59;10.43;;;5.20;;
3733;SDS011;1882;52.256;8.874;2024-02-26T04:30:25;8.17;;;5.50;;
3733;SDS011;1882;52.256;8.874;2024-02-26T04:32:52;6.40;;;5.50;;
3733;SDS011;1882;52.256;8.874;2024-02-26T04:35:19;5.90;;;5.20;;
3733;SDS011;1882;52.256;8.874;2024-02-26T04:37:46;6.30;;;5.50;;
3733;SDS011;1882;52.256;8.874;2024-02-26T04:40:13;5.40;;;4.90;;
3733;SDS011;1882;52.256;8.874;2024-02-26T04:42:40;5.37;;;4.87;;
3733;SDS011;1882;52.256;8.874;2024-02-26T04:45:07;6.03;;;5.43;;
3733;SDS011;1882;52.256;8.874;2024-02-26T04:47:34;5.50;;;4.90;;
3733;SDS011;1882;52.256;8.874;2024-02-26T04:50:02;6.33;;;5.30;;
3733;SDS011;1882;52.256;8.874;2024-02-26T04:52:29;6.17;;;5.57;;
3733;SDS011;1882;52.256;8.874;2024-02-26T04:54:56;6.30;;;5.53;;
3733;SDS011;1882;52.256;8.874;2024-02-26T04:57:23;7.00;;;5.33;;
3733;SDS011;1882;52.256;8.874;2024-02-26T04:59:50;6.30;;;5.50;;
3733;SDS011;1882;52.256;8.874;2024-02-26T05:02:17;7.27;;;5.70;;
3733;SDS011;1882;52.256;8.874;2024-02-26T05:04:44;6.83;;;5.37;;
3733;SDS011;1882;52.256;8.874;2024-02-26T05:07:11;8.87;;;5.80;;
3733;SDS011;1882;52.256;8.874;2024-02-26T05:09:39;6.77;;;6.07;;
3733;SDS011;1882;52.256;8.874;2024-02-26T05:12:08;8.23;;;6.37;;
3733;SDS011;1882;52.256;8.874;2024-02-26T05:14:35;6.33;;;5.50;;
3733;SDS011;1882;52.256;8.874;2024-02-26T05:17:02;8.10;;;6.33;;
3733;SDS011;1882;52.256;8.874;2024-02-26T05:19:29;7.50;;;6.67;;
3733;SDS011;1882;52.256;8.874;2024-02-26T05:21:56;9.10;;;6.97;;
3733;SDS011;1882;52.256;8.874;2024-02-26T05:24:23;7.77;;;6.50;;
3733;SDS011;1882;52.256;8.874;2024-02-26T05:26:50;8.70;;;7.27;;
3733;SDS011;1882;52.256;8.874;2024-02-26T05:29:17;8.73;;;7.10;;
3733;SDS011;1882;52.256;8.874;2024-02-26T05:31:44;10.47;;;7.53;;
3733;SDS011;1882;52.256;8.874;2024-02-26T05:34:11;9.30;;;7.80;;
3733;SDS011;1882;52.256;8.874;2024-02-26T05:36:38;9.70;;;8.20;;
3733;SDS011;1882;52.256;8.874;2024-02-26T05:39:05;12.90;;;9.00;;
3733;SDS011;1882;52.256;8.874;2024-02-26T05:41:35;11.70;;;9.33;;
3733;SDS011;1882;52.256;8.874;2024-02-26T05:44:02;14.90;;;10.07;;
3733;SDS011;1882;52.256;8.874;2024-02-26T05:46:30;16.83;;;10.03;;
3733;SDS011;1882;52.256;8.874;2024-02-26T05:48:56;13.33;;;9.40;;
3733;SDS011;1882;52.256;8.874;2024-02-26T05:51:23;14.63;;;9.93;;
3733;SDS011;1882;52.256;8.874;2024-02-26T05:53:51;14.17;;;9.90;;
3733;SDS011;1882;52.256;8.874;2024-02-26T05:56:21;14.87;;;8.43;;
3733;SDS011;1882;52.256;8.874;2024-02-26T05:58:49;14.73;;;9.77;;
3733;SDS011;1882;52.256;8.874;2024-02-26T06:01:16;13.00;;;9.40;;
3733;SDS011;1882;52.256;8.874;2024-02-26T06:03:44;15.57;;;10.20;;
3733;SDS011;1882;52.256;8.874;2024-02-26T06:06:11;12.20;;;9.40;;
3733;SDS011;1882;52.256;8.874;2024-02-26T06:08:38;10.70;;;8.23;;
3733;SDS011;1882;52.256;8.874;2024-02-26T06:11:06;11.10;;;8.83;;
3733;SDS011;1882;52.256;8.874;2024-02-26T06:13:36;11.97;;;8.53;;
3733;SDS011;1882;52.256;8.874;2024-02-26T06:16:03;12.20;;;8.70;;
3733;SDS011;1882;52.256;8.874;2024-02-26T06:18:31;10.90;;;8.53;;
3733;SDS011;1882;52.256;8.874;2024-02-26T06:20:58;12.07;;;8.87;;
3733;SDS011;1882;52.256;8.874;2024-02-26T06:23:25;13.53;;;9.07;;
3733;SDS011;1882;52.256;8.874;2024-02-26T06:25:52;10.73;;;8.20;;
3733;SDS011;1882;52.256;8.874;2024-02-26T06:28:19;12.77;;;9.53;;
3733;SDS011;1882;52.256;8.874;2024-02-26T06:30:46;11.37;;;8.10;;
3733;SDS011;1882;52.256;8.874;2024-02-26T06:33:13;12.07;;;8.90;;
3733;SDS011;1882;52.256;8.874;2024-02-26T06:35:41;11.03;;;8.23;;
3733;SDS011;1882;52.256;8.874;2024-02-26T06:38:08;12.80;;;9.70;;
3733;SDS011;1882;52.256;8.874;2024-02-26T06:40:36;13.80;;;10.70;;
3733;SDS011;1882;52.256;8.874;2024-02-26T06:43:03;14.33;;;10.90;;
3733;SDS011;1882;52.256;8.874;2024-02-26T06:45:30;12.17;;;9.27;;
3733;SDS011;1882;52.256;8.874;2024-02-26T06:47:57;15.93;;;11.27;;
3733;SDS011;1882;52.256;8.874;2024-02-26T06:50:24;13.40;;;8.93;;
3733;SDS011;1882;52.256;8.874;2024-02-26T06:52:51;12.10;;;8.63;;
3733;SDS011;1882;52.256;8.874;2024-02-26T06:55:18;13.43;;;9.80;;
3733;SDS011;1882;52.256;8.874;2024-02-26T06:57:45;19.43;;;10.50;;
3733;SDS011;1882;52.256;8.874;2024-02-26T07:00:12;11.87;;;9.70;;
3733;SDS011;1882;52.256;8.874;2024-02-26T07:02:42;10.03;;;7.57;;
3733;SDS011;1882;52.256;8.874;2024-02-26T07:05:10;10.57;;;8.40;;
3733;SDS011;1882;52.256;8.874;2024-02-26T07:07:37;11.43;;;9.00;;
3733;SDS011;1882;52.256;8.874;2024-02-26T07:10:04;8.10;;;7.30;;
3733;SDS011;1882;52.256;8.874;2024-02-26T07:12:32;14.57;;;9.40;;
3733;SDS011;1882;52.256;8.874;2024-02-26T07:14:59;11.73;;;8.17;;
3733;SDS011;1882;52.256;8.874;2024-02-26T07:17:27;9.13;;;7.07;;
3733;SDS011;1882;52.256;8.874;2024-02-26T07:19:54;11.00;;;8.00;;
3733;SDS011;1882;52.256;8.874;2024-02-26T07:22:21;11.93;;;8.13;;
3733;SDS011;1882;52.256;8.874;2024-02-26T07:24:48;8.67;;;7.50;;
3733;SDS011;1882;52.256;8.874;2024-02-26T07:27:15;10.43;;;7.37;;
3733;SDS011;1882;52.256;8.874;2024-02-26T07:29:44;8.50;;;7.30;;
3733;SDS011;1882;52.256;8.874;2024-02-26T07:32:11;15.03;;;7.27;;
3733;SDS011;1882;52.256;8.874;2024-02-26T07:34:38;11.10;;;7.03;;
3733;SDS011;1882;52.256;8.874;2024-02-26T07:37:08;8.60;;;6.27;;
3733;SDS011;1882;52.256;8.874;2024-02-26T07:39:35;8.63;;;6.30;;
3733;SDS011;1882;52.256;8.874;2024-02-26T07:42:03;8.30;;;6.17;;
3733;SDS011;1882;52.256;8.874;2024-02-26T07:44:30;8.43;;;6.63;;
3733;SDS011;1882;52.256;8.874;2024-02-26T07:46:57;8.17;;;6.57;;
3733;SDS011;1882;52.256;8.874;2024-02-26T07:49:24;9.20;;;6.37;;
3733;SDS011;1882;52.256;8.874;2024-02-26T07:51:52;7.87;;;6.23;;
3733;SDS011;1882;52.256;8.874;2024-02-26T07:54:19;8.67;;;6.20;;
3733;SDS011;1882;52.256;8.874;2024-02-26T07:56:46;8.53;;;6.17;;
3733;SDS011;1882;52.256;8.874;2024-02-26T07:59:13;7.40;;;5.47;;
3733;SDS011;1882;52.256;8.874;2024-02-26T08:01:40;6.83;;;5.90;;
3733;SDS011;1882;52.256;8.874;2024-02-26T08:04:08;6.67;;;5.50;;
3733;SDS011;1882;52.256;8.874;2024-02-26T08:06:35;6.30;;;5.43;;
3733;SDS011;1882;52.256;8.874;2024-02-26T08:09:04;5.70;;;5.07;;
3733;SDS011;1882;52.256;8.874;2024-02-26T08:11:31;8.67;;;5.90;;
3733;SDS011;1882;52.256;8.874;2024-02-26T08:13:58;7.80;;;5.37;;
3733;SDS011;1882;52.256;8.874;2024-02-26T08:16:25;6.43;;;4.80;;
3733;SDS011;1882;52.256;8.874;2024-02-26T08:18:53;8.30;;;5.70;;
3733;SDS011;1882;52.256;8.874;2024-02-26T08:21:20;7.63;;;5.17;;
3733;SDS011;1882;52.256;8.874;2024-02-26T08:23:47;6.93;;;5.93;;
3733;SDS011;1882;52.256;8.874;2024-02-26T08:26:14;9.23;;;5.50;;
3733;SDS011;1882;52.256;8.874;2024-02-26T08:28:41;7.77;;;5.20;;
3733;SDS011;1882;52.256;8.874;2024-02-26T08:31:08;8.03;;;5.90;;
3733;SDS011;1882;52.256;8.874;2024-02-26T08:33:35;6.60;;;5.37;;
3733;SDS011;1882;52.256;8.874;2024-02-26T08:36:05;7.97;;;5.37;;
3733;SDS011;1882;52.256;8.874;2024-02-26T08:38:33;7.10;;;5.47;;
3733;SDS011;1882;52.256;8.874;2024-02-26T08:41:02;6.07;;;4.90;;
3733;SDS011;1882;52.256;8.874;2024-02-26T08:43:32;7.40;;;5.47;;
3733;SDS011;1882;52.256;8.874;2024-02-26T08:45:58;8.50;;;5.93;;
3733;SDS011;1882;52.256;8.874;2024-02-26T08:48:25;8.40;;;6.20;;
3733;SDS011;1882;52.256;8.874;2024-02-26T08:50:52;7.30;;;5.47;;
3733;SDS011;1882;52.256;8.874;2024-02-26T08:53:20;7.00;;;5.83;;
3733;SDS011;1882;52.256;8.874;2024-02-26T08:55:57;7.73;;;5.70;;
3733;SDS011;1882;52.256;8.874;2024-02-26T08:58:24;7.47;;;5.60;;
3733;SDS011;1882;52.256;8.874;2024-02-26T09:00:51;7.13;;;5.60;;
3733;SDS011;1882;52.256;8.874;2024-02-26T09:03:18;10.83;;;6.70;;
3733;SDS011;1882;52.256;8.874;2024-02-26T09:05:45;8.33;;;6.43;;
3733;SDS011;1882;52.256;8.874;2024-02-26T09:08:13;10.87;;;6.00;;
3733;SDS011;1882;52.256;8.874;2024-02-26T09:10:44;8.17;;;6.40;;
3733;SDS011;1882;52.256;8.874;2024-02-26T09:13:11;7.90;;;5.80;;
3733;SDS011;1882;52.256;8.874;2024-02-26T09:15:37;8.60;;;6.30;;
3733;SDS011;1882;52.256;8.874;2024-02-26T09:18:04;9.07;;;6.40;;
3733;SDS011;1882;52.256;8.874;2024-02-26T09:20:32;8.47;;;6.10;;
3733;SDS011;1882;52.256;8.874;2024-02-26T09:22:58;7.30;;;5.37;;
3733;SDS011;1882;52.256;8.874;2024-02-26T09:25:25;5.80;;;5.20;;
3733;SDS011;1882;52.256;8.874;2024-02-26T09:27:52;9.60;;;6.00;;
3733;SDS011;1882;52.256;8.874;2024-02-26T09:30:19;8.10;;;5.60;;
3733;SDS011;1882;52.256;8.874;2024-02-26T09:32:46;6.67;;;5.10;;
3733;SDS011;1882;52.256;8.874;2024-02-26T09:35:15;6.90;;;5.03;;
3733;SDS011;1882;52.256;8.874;2024-02-26T09:37:42;5.73;;;5.00;;
3733;SDS011;1882;52.256;8.874;2024-02-26T09:40:10;6.70;;;5.67;;
3733;SDS011;1882;52.256;8.874;2024-02-26T09:42:44;6.67;;;5.30;;
3733;SDS011;1882;52.256;8.874;2024-02-26T09:45:18;8.00;;;5.23;;
3733;SDS011;1882;52.256;8.874;2024-02-26T09:47:48;5.90;;;5.27;;
3733;SDS011;1882;52.256;8.874;2024-02-26T09:50:16;6.53;;;5.33;;
3733;SDS011;1882;52.256;8.874;2024-02-26T09:52:44;6.40;;;4.60;;
3733;SDS011;1882;52.256;8.874;2024-02-26T09:55:11;5.53;;;5.00;;
3733;SDS011;1882;52.256;8.874;2024-02-26T09:57:38;7.37;;;4.57;;
3733;SDS011;1882;52.256;8.874;2024-02-26T10:00:14;7.67;;;5.17;;
3733;SDS011;1882;52.256;8.874;2024-02-26T10:02:45;5.40;;;4.90;;
3733;SDS011;1882;52.256;8.874;2024-02-26T10:05:17;6.30;;;4.87;;
3733;SDS011;1882;52.256;8.874;2024-02-26T10:07:48;5.07;;;4.57;;
3733;SDS011;1882;52.256;8.874;2024-02-26T10:10:19;8.10;;;4.43;;
3733;SDS011;1882;52.256;8.874;2024-02-26T10:12:46;7.83;;;4.60;;
3733;SDS011;1882;52.256;8.874;2024-02-26T10:15:13;7.10;;;5.10;;
3733;SDS011;1882;52.256;8.874;2024-02-26T10:17:40;7.57;;;4.90;;
3733;SDS011;1882;52.256;8.874;2024-02-26T10:20:17;5.30;;;4.60;;
3733;SDS011;1882;52.256;8.874;2024-02-26T10:22:48;6.10;;;4.63;;
3733;SDS011;1882;52.256;8.874;2024-02-26T10:25:15;5.47;;;4.83;;
3733;SDS011;1882;52.256;8.874;2024-02-26T10:27:42;7.30;;;4.50;;
3733;SDS011;1882;52.256;8.874;2024-02-26T10:30:16;6.70;;;4.90;;
3733;SDS011;1882;52.256;8.874;2024-02-26T10:32:48;6.70;;;4.83;;
3733;SDS011;1882;52.256;8.874;2024-02-26T10:35:16;4.80;;;4.20;;
3733;SDS011;1882;52.256;8.874;2024-02-26T10:37:54;7.20;;;4.93;;
3733;SDS011;1882;52.256;8.874;2024-02-26T10:40:21;4.67;;;4.10;;
3733;SDS011;1882;52.256;8.874;2024-02-26T10:42:47;4.60;;;4.20;;
3733;SDS011;1882;52.256;8.874;2024-02-26T10:45:14;5.63;;;4.27;;
3733;SDS011;1882;52.256;8.874;2024-02-26T10:47:42;4.90;;;4.33;;
3733;SDS011;1882;52.256;8.874;2024-02-26T10:50:09;5.07;;;4.57;;
3733;SDS011;1882;52.256;8.874;2024-02-26T10:52:39;6.50;;;4.83;;
3733;SDS011;1882;52.256;8.874;2024-02-26T10:55:08;4.90;;;4.17;;
3733;SDS011;1882;52.256;8.874;2024-02-26T10:57:45;4.60;;;4.10;;
3733;SDS011;1882;52.256;8.874;2024-02-26T11:00:14;5.43;;;4.20;;
3733;SDS011;1882;52.256;8.874;2024-02-26T11:02:42;4.43;;;4.03;;
3733;SDS011;1882;52.256;8.874;2024-02-26T11:05:13;4.93;;;4.10;;
3733;SDS011;1882;52.256;8.874;2024-02-26T11:07:41;5.03;;;4.07;;
3733;SDS011;1882;52.256;8.874;2024-02-26T11:10:08;5.00;;;3.63;;
3733;SDS011;1882;52.256;8.874;2024-02-26T11:12:37;4.10;;;3.70;;
3733;SDS011;1882;52.256;8.874;2024-02-26T11:15:06;4.10;;;3.73;;
3733;SDS011;1882;52.256;8.874;2024-02-26T11:17:34;5.80;;;3.80;;
3733;SDS011;1882;52.256;8.874;2024-02-26T11:20:03;4.10;;;3.70;;
3733;SDS011;1882;52.256;8.874;2024-02-26T11:22:32;4.20;;;3.60;;
3733;SDS011;1882;52.256;8.874;2024-02-26T11:24:59;3.40;;;3.10;;
3733;SDS011;1882;52.256;8.874;2024-02-26T11:27:30;4.73;;;3.57;;
3733;SDS011;1882;52.256;8.874;2024-02-26T11:30:01;3.57;;;3.27;;
3733;SDS011;1882;52.256;8.874;2024-02-26T11:32:31;7.00;;;3.47;;
3733;SDS011;1882;52.256;8.874;2024-02-26T11:34:58;4.17;;;3.73;;
3733;SDS011;1882;52.256;8.874;2024-02-26T11:37:25;6.10;;;3.90;;
3733;SDS011;1882;52.256;8.874;2024-02-26T11:39:53;6.20;;;3.87;;
3733;SDS011;1882;52.256;8.874;2024-02-26T11:42:24;3.93;;;3.37;;
3733;SDS011;1882;52.256;8.874;2024-02-26T11:44:56;3.60;;;3.30;;
3733;SDS011;1882;52.256;8.874;2024-02-26T11:47:27;3.63;;;3.33;;
3733;SDS011;1882;52.256;8.874;2024-02-26T11:49:54;4.10;;;3.67;;
3733;SDS011;1882;52.256;8.874;2024-02-26T11:52:22;5.60;;;3.63;;
3733;SDS011;1882;52.256;8.874;2024-02-26T11:54:50;5.20;;;3.40;;
3733;SDS011;1882;52.256;8.874;2024-02-26T11:57:38;4.50;;;3.40;;
3733;SDS011;1882;52.256;8.874;2024-02-26T12:05:30;3.47;;;3.17;;
3733;SDS011;1882;52.256;8.874;2024-02-26T12:08:03;5.20;;;4.10;;
3733;SDS011;1882;52.256;8.874;2024-02-26T12:10:38;4.57;;;3.57;;
3733;SDS011;1882;52.256;8.874;2024-02-26T12:15:46;5.03;;;3.90;;
3733;SDS011;1882;52.256;8.874;2024-02-26T12:18:25;3.93;;;3.40;;
3733;SDS011;1882;52.256;8.874;2024-02-26T12:20:59;4.77;;;3.60;;
3733;SDS011;1882;52.256;8.874;2024-02-26T12:23:27;5.03;;;3.60;;
3733;SDS011;1882;52.256;8.874;2024-02-26T12:26:01;4.00;;;3.60;;
3733;SDS011;1882;52.256;8.874;2024-02-26T12:28:33;5.00;;;3.20;;
3733;SDS011;1882;52.256;8.874;2024-02-26T12:31:00;5.70;;;3.43;;
3733;SDS011;1882;52.256;8.874;2024-02-26T12:33:27;4.60;;;3.47;;
3733;SDS011;1882;52.256;8.874;2024-02-26T12:35:55;3.63;;;3.33;;
3733;SDS011;1882;52.256;8.874;2024-02-26T12:38:23;3.60;;;3.30;;
3733;SDS011;1882;52.256;8.874;2024-02-26T12:40:50;3.43;;;3.13;;
3733;SDS011;1882;52.256;8.874;2024-02-26T12:43:18;4.57;;;3.17;;
3733;SDS011;1882;52.256;8.874;2024-02-26T12:45:45;5.77;;;3.87;;
3733;SDS011;1882;52.256;8.874;2024-02-26T12:48:14;3.90;;;3.40;;
3733;SDS011;1882;52.256;8.874;2024-02-26T12:50:44;4.60;;;3.40;;
3733;SDS011;1882;52.256;8.874;2024-02-26T12:53:13;3.57;;;3.27;;
3733;SDS011;1882;52.256;8.874;2024-02-26T12:55:40;4.80;;;3.23;;
3733;SDS011;1882;52.256;8.874;2024-02-26T12:58:08;9.57;;;3.43;;
3733;SDS011;1882;52.256;8.874;2024-02-26T13:00:36;6.80;;;3.37;;
3733;SDS011;1882;52.256;8.874;2024-02-26T13:03:03;5.13;;;3.53;;
3733;SDS011;1882;52.256;8.874;2024-02-26T13:05:31;5.37;;;3.70;;
3733;SDS011;1882;52.256;8.874;2024-02-26T13:07:59;3.47;;;3.00;;
3733;SDS011;1882;52.256;8.874;2024-02-26T13:10:26;3.73;;;3.43;;
3733;SDS011;1882;52.256;8.874;2024-02-26T13:12:53;3.77;;;3.40;;
3733;SDS011;1882;52.256;8.874;2024-02-26T13:15:21;5.10;;;3.30;;
3733;SDS011;1882;52.256;8.874;2024-02-26T13:17:49;3.53;;;3.23;;
3733;SDS011;1882;52.256;8.874;2024-02-26T13:20:29;5.47;;;3.47;;
3733;SDS011;1882;52.256;8.874;2024-02-26T13:23:04;4.00;;;3.43;;
3733;SDS011;1882;52.256;8.874;2024-02-26T13:25:33;4.93;;;3.53;;
3733;SDS011;1882;52.256;8.874;2024-02-26T13:28:08;3.67;;;3.37;;
3733;SDS011;1882;52.256;8.874;2024-02-26T13:30:39;3.70;;;3.40;;
3733;SDS011;1882;52.256;8.874;2024-02-26T13:33:09;4.57;;;3.27;;
3733;SDS011;1882;52.256;8.874;2024-02-26T13:35:38;4.70;;;3.00;;
3733;SDS011;1882;52.256;8.874;2024-02-26T13:38:06;3.80;;;3.40;;
3733;SDS011;1882;52.256;8.874;2024-02-26T13:40:33;4.47;;;3.30;;
3733;SDS011;1882;52.256;8.874;2024-02-26T13:43:00;3.90;;;3.13;;
3733;SDS011;1882;52.256;8.874;2024-02-26T13:45:27;4.80;;;3.40;;
3733;SDS011;1882;52.256;8.874;2024-02-26T13:48:04;3.57;;;3.27;;
3733;SDS011;1882;52.256;8.874;2024-02-26T13:50:32;4.00;;;2.93;;
3733;SDS011;1882;52.256;8.874;2024-02-26T13:52:59;3.50;;;3.20;;
3733;SDS011;1882;52.256;8.874;2024-02-26T13:55:26;4.10;;;3.30;;
3733;SDS011;1882;52.256;8.874;2024-02-26T13:57:55;5.53;;;2.97;;
3733;SDS011;1882;52.256;8.874;2024-02-26T14:00:23;3.33;;;3.00;;
3733;SDS011;1882;52.256;8.874;2024-02-26T14:02:51;5.17;;;3.10;;
3733;SDS011;1882;52.256;8.874;2024-02-26T14:05:18;3.20;;;2.90;;
3733;SDS011;1882;52.256;8.874;2024-02-26T14:07:45;4.10;;;3.23;;
3733;SDS011;1882;52.256;8.874;2024-02-26T14:10:17;3.00;;;2.80;;
3733;SDS011;1882;52.256;8.874;2024-02-26T14:12:44;3.40;;;3.10;;
3733;SDS011;1882;52.256;8.874;2024-02-26T14:15:11;3.60;;;3.03;;
3733;SDS011;1882;52.256;8.874;2024-02-26T14:17:38;3.37;;;3.07;;
3733;SDS011;1882;52.256;8.874;2024-02-26T14:20:05;2.80;;;2.50;;
3733;SDS011;1882;52.256;8.874;2024-02-26T14:22:34;3.60;;;3.07;;
3733;SDS011;1882;52.256;8.874;2024-02-26T14:25:01;3.13;;;2.90;;
3733;SDS011;1882;52.256;8.874;2024-02-26T14:27:28;3.30;;;2.93;;
3733;SDS011;1882;52.256;8.874;2024-02-26T14:29:55;4.37;;;2.90;;
3733;SDS011;1882;52.256;8.874;2024-02-26T14:32:22;5.57;;;3.00;;
3733;SDS011;1882;52.256;8.874;2024-02-26T14:34:48;2.90;;;2.70;;
3733;SDS011;1882;52.256;8.874;2024-02-26T14:37:16;3.20;;;2.90;;
3733;SDS011;1882;52.256;8.874;2024-02-26T14:39:43;2.87;;;2.57;;
3733;SDS011;1882;52.256;8.874;2024-02-26T14:42:10;3.17;;;2.70;;
3733;SDS011;1882;52.256;8.874;2024-02-26T14:44:36;2.80;;;2.60;;
3733;SDS011;1882;52.256;8.874;2024-02-26T14:47:04;3.00;;;2.80;;
3733;SDS011;1882;52.256;8.874;2024-02-26T14:49:30;3.30;;;2.90;;
3733;SDS011;1882;52.256;8.874;2024-02-26T14:51:58;2.77;;;2.57;;
3733;SDS011;1882;52.256;8.874;2024-02-26T14:54:25;2.97;;;2.47;;
3733;SDS011;1882;52.256;8.874;2024-02-26T14:56:52;2.60;;;2.40;;
3733;SDS011;1882;52.256;8.874;2024-02-26T14:59:19;3.27;;;2.60;;
3733;SDS011;1882;52.256;8.874;2024-02-26T15:01:46;2.63;;;2.43;;
3733;SDS011;1882;52.256;8.874;2024-02-26T15:04:13;3.27;;;2.90;;
3733;SDS011;1882;52.256;8.874;2024-02-26T15:06:41;3.80;;;2.70;;
3733;SDS011;1882;52.256;8.874;2024-02-26T15:09:09;2.20;;;2.00;;
3733;SDS011;1882;52.256;8.874;2024-02-26T15:11:39;2.73;;;2.53;;
3733;SDS011;1882;52.256;8.874;2024-02-26T15:14:07;2.90;;;2.20;;
3733;SDS011;1882;52.256;8.874;2024-02-26T15:16:33;4.00;;;2.60;;
3733;SDS011;1882;52.256;8.874;2024-02-26T15:19:01;3.20;;;2.20;;
3733;SDS011;1882;52.256;8.874;2024-02-26T15:21:29;2.50;;;2.30;;
3733;SDS011;1882;52.256;8.874;2024-02-26T15:23:56;2.60;;;2.17;;